createdAt,value
2022-09-23T00:00:38.567Z,14.13
2022-09-23T00:03:05.829Z,19.50
2022-09-23T00:05:33.000Z,14.43
2022-09-23T00:08:00.091Z,14.07
2022-09-23T00:10:28.116Z,15.52
2022-09-23T00:12:55.881Z,16.45
2022-09-23T00:15:25.169Z,15.60
2022-09-23T00:17:53.090Z,16.35
2022-09-23T00:20:20.218Z,17.67
2022-09-23T00:22:47.343Z,14.15
2022-09-23T00:25:14.391Z,17.17
2022-09-23T00:27:42.333Z,14.43
2022-09-23T00:30:10.441Z,14.82
2022-09-23T00:32:38.046Z,16.33
2022-09-23T00:35:05.340Z,17.85
2022-09-23T00:37:32.579Z,16.70
2022-09-23T00:40:00.658Z,16.02
2022-09-23T00:42:27.773Z,14.50
2022-09-23T00:44:56.116Z,14.63
2022-09-23T00:47:38.329Z,15.35
2022-09-23T00:50:08.928Z,17.08
2022-09-23T00:52:37.036Z,16.60
2022-09-23T00:55:08.145Z,15.23
2022-09-23T00:57:37.052Z,14.77
2022-09-23T01:00:05.524Z,14.38
2022-09-23T01:02:32.826Z,16.98
2022-09-23T01:05:02.010Z,15.88
2022-09-23T01:07:30.070Z,14.80
2022-09-23T01:09:58.310Z,15.20
2022-09-23T01:12:42.334Z,14.98
2022-09-23T01:15:18.831Z,16.10
2022-09-23T01:18:04.488Z,15.07
2022-09-23T01:20:46.771Z,13.88
2022-09-23T01:23:31.861Z,16.73
2022-09-23T01:26:14.141Z,17.50
2022-09-23T01:28:43.952Z,16.60
2022-09-23T01:31:17.389Z,15.45
2022-09-23T01:33:56.473Z,15.48
2022-09-23T01:36:26.107Z,15.83
2022-09-23T01:39:02.874Z,16.27
2022-09-23T01:41:45.285Z,15.15
2022-09-23T01:44:14.537Z,14.60
2022-09-23T01:46:50.542Z,15.20
2022-09-23T01:49:28.331Z,16.60
2022-09-23T01:52:05.326Z,16.08
2022-09-23T01:54:47.345Z,15.70
2022-09-23T01:57:25.400Z,14.70
2022-09-23T02:00:15.717Z,17.00
2022-09-23T02:02:52.186Z,17.17
2022-09-23T02:05:22.144Z,16.77
2022-09-23T02:07:49.654Z,17.15
2022-09-23T02:10:22.946Z,14.95
2022-09-23T02:12:50.978Z,15.75
2022-09-23T02:15:20.286Z,16.60
2022-09-23T02:17:52.023Z,17.65
2022-09-23T02:20:22.688Z,15.23
2022-09-23T02:22:49.763Z,17.20
2022-09-23T02:25:17.347Z,16.17
2022-09-23T02:27:52.730Z,16.67
2022-09-23T02:30:27.022Z,16.52
2022-09-23T02:32:58.631Z,16.67
2022-09-23T02:35:25.731Z,16.77
2022-09-23T02:38:06.674Z,18.05
2022-09-23T02:40:38.664Z,18.53
2022-09-23T02:43:07.555Z,17.33
2022-09-23T02:45:35.415Z,15.38
2022-09-23T02:48:05.900Z,16.55
2022-09-23T02:50:33.762Z,15.63
2022-09-23T02:53:01.414Z,16.53
2022-09-23T02:55:32.302Z,15.85
2022-09-23T02:58:02.793Z,19.15
2022-09-23T03:00:37.840Z,17.60
2022-09-23T03:03:20.204Z,17.70
2022-09-23T03:05:54.771Z,16.30
2022-09-23T03:08:21.833Z,15.85
2022-09-23T03:10:52.962Z,15.95
2022-09-23T03:13:40.289Z,18.42
2022-09-23T03:16:39.864Z,18.80
2022-09-23T03:19:18.887Z,17.23
2022-09-23T03:21:57.370Z,16.60
2022-09-23T03:24:25.447Z,20.30
2022-09-23T03:26:53.855Z,20.00
2022-09-23T03:29:21.848Z,18.92
2022-09-23T03:31:49.106Z,18.37
2022-09-23T03:34:19.480Z,18.08
2022-09-23T03:37:01.437Z,18.75
2022-09-23T03:39:37.682Z,16.70
2022-09-23T03:42:08.315Z,19.55
2022-09-23T03:44:39.559Z,19.47
2022-09-23T03:47:06.964Z,17.63
2022-09-23T03:49:36.132Z,18.52
2022-09-23T03:52:03.462Z,17.08
2022-09-23T03:54:30.806Z,18.48
2022-09-23T03:56:58.324Z,19.17
2022-09-23T03:59:25.685Z,18.55
2022-09-23T04:01:54.096Z,18.27
2022-09-23T04:04:21.201Z,18.70
2022-09-23T04:06:48.258Z,19.60
2022-09-23T04:09:15.510Z,17.90
2022-09-23T04:11:42.592Z,18.13
2022-09-23T04:14:10.342Z,20.52
2022-09-23T04:16:37.499Z,18.58
2022-09-23T04:19:05.177Z,19.45
2022-09-23T04:21:32.496Z,19.87
2022-09-23T04:23:59.604Z,17.95
2022-09-23T04:26:26.744Z,22.48
2022-09-23T04:28:55.148Z,18.80
2022-09-23T04:31:25.026Z,21.60
2022-09-23T04:33:54.990Z,18.80
2022-09-23T04:36:22.553Z,20.00
2022-09-23T04:38:50.176Z,17.70
2022-09-23T04:41:17.501Z,20.05
2022-09-23T04:43:44.984Z,18.60
2022-09-23T04:46:13.144Z,18.27
2022-09-23T04:48:41.566Z,19.65
2022-09-23T04:51:12.936Z,21.52
2022-09-23T04:53:41.135Z,18.92
2022-09-23T04:56:10.052Z,20.15
2022-09-23T04:58:37.169Z,18.70
2022-09-23T05:01:16.432Z,17.75
2022-09-23T05:03:44.085Z,22.85
2022-09-23T05:06:13.681Z,19.48
2022-09-23T05:08:41.589Z,18.70
2022-09-23T05:11:08.963Z,18.47
2022-09-23T05:13:36.087Z,19.73
2022-09-23T05:16:04.553Z,17.92
2022-09-23T05:18:32.401Z,19.33
2022-09-23T05:20:59.477Z,19.55
2022-09-23T05:23:27.380Z,17.90
2022-09-23T05:26:02.048Z,24.80
2022-09-23T05:28:31.196Z,18.33
2022-09-23T05:31:19.571Z,19.77
2022-09-23T05:33:57.566Z,18.20
2022-09-23T05:36:24.900Z,18.60
2022-09-23T05:38:52.535Z,19.35
2022-09-23T05:41:25.183Z,19.95
2022-09-23T05:43:53.159Z,18.17
2022-09-23T05:46:24.304Z,19.27
2022-09-23T05:48:51.728Z,19.57
2022-09-23T05:51:20.049Z,20.13
2022-09-23T05:53:47.616Z,19.30
2022-09-23T05:56:15.383Z,19.60
2022-09-23T05:58:42.549Z,19.05
2022-09-23T06:01:10.803Z,18.13
2022-09-23T06:03:37.963Z,18.10
2022-09-23T06:06:05.110Z,20.58
2022-09-23T06:08:34.207Z,19.58
2022-09-23T06:11:07.047Z,21.08
2022-09-23T06:13:35.466Z,22.37
2022-09-23T06:16:03.212Z,21.20
2022-09-23T06:18:30.287Z,20.70
2022-09-23T06:21:00.610Z,20.27
2022-09-23T06:23:27.739Z,17.67
2022-09-23T06:25:54.893Z,19.33
2022-09-23T06:28:22.648Z,18.65
2022-09-23T06:30:50.538Z,18.02
2022-09-23T06:33:25.912Z,18.77
2022-09-23T06:36:00.212Z,18.13
2022-09-23T06:38:28.181Z,17.30
2022-09-23T06:40:56.248Z,21.35
2022-09-23T06:43:24.103Z,20.05
2022-09-23T06:45:58.424Z,18.73
2022-09-23T06:48:26.187Z,18.85
2022-09-23T06:50:53.774Z,18.47
2022-09-23T06:53:23.637Z,17.60
2022-09-23T06:55:58.903Z,18.33
2022-09-23T06:58:26.736Z,17.60
2022-09-23T07:00:54.201Z,20.67
2022-09-23T07:03:22.151Z,17.93
2022-09-23T07:05:49.223Z,17.85
2022-09-23T07:08:16.347Z,19.58
2022-09-23T07:10:43.399Z,17.52
2022-09-23T07:13:15.511Z,20.67
2022-09-23T07:15:43.374Z,15.87
2022-09-23T07:18:13.621Z,20.00
2022-09-23T07:20:40.672Z,17.70
2022-09-23T07:23:07.709Z,17.73
2022-09-23T07:25:34.763Z,20.10
2022-09-23T07:28:02.006Z,18.13
2022-09-23T07:30:29.084Z,17.63
2022-09-23T07:32:56.192Z,17.63
2022-09-23T07:35:23.347Z,17.35
2022-09-23T07:37:50.951Z,19.08
2022-09-23T07:40:18.093Z,17.90
2022-09-23T07:42:45.251Z,18.02
2022-09-23T07:45:12.915Z,18.83
2022-09-23T07:47:39.990Z,17.80
2022-09-23T07:50:07.881Z,18.08
2022-09-23T07:52:38.095Z,19.47
2022-09-23T07:55:06.174Z,17.77
2022-09-23T07:57:33.359Z,18.83
2022-09-23T08:00:01.085Z,18.67
2022-09-23T08:02:28.354Z,17.25
2022-09-23T08:04:55.523Z,15.40
2022-09-23T08:07:22.570Z,17.63
2022-09-23T08:09:49.623Z,17.17
2022-09-23T08:12:18.174Z,19.20
2022-09-23T08:14:45.528Z,16.65
2022-09-23T08:17:13.791Z,16.57
2022-09-23T08:19:40.882Z,14.02
2022-09-23T08:22:07.929Z,16.88
2022-09-23T08:24:34.976Z,15.00
2022-09-23T08:27:02.030Z,16.13
2022-09-23T08:29:29.135Z,14.37
2022-09-23T08:31:56.295Z,18.27
2022-09-23T08:34:23.878Z,15.23
2022-09-23T08:36:52.290Z,15.82
2022-09-23T08:39:20.253Z,15.30
2022-09-23T08:41:59.029Z,14.83
2022-09-23T08:44:47.724Z,17.38
2022-09-23T08:47:21.903Z,14.07
2022-09-23T08:49:54.099Z,14.70
2022-09-23T08:52:24.381Z,14.00
2022-09-23T08:54:55.262Z,13.67
2022-09-23T08:57:57.391Z,14.18
2022-09-23T09:00:42.852Z,13.77
2022-09-23T09:03:21.779Z,15.77
2022-09-23T09:05:54.136Z,13.63
2022-09-23T09:08:27.268Z,12.13
2022-09-23T09:10:55.995Z,13.30
2022-09-23T09:13:31.785Z,12.77
2022-09-23T09:16:05.895Z,13.77
2022-09-23T09:18:34.439Z,13.27
2022-09-23T09:21:12.003Z,12.43
2022-09-23T09:23:48.416Z,15.82
2022-09-23T09:26:22.446Z,13.90
2022-09-23T09:28:51.843Z,14.25
2022-09-23T09:31:30.033Z,17.70
2022-09-23T09:34:03.010Z,14.70
2022-09-23T09:36:33.166Z,13.73
2022-09-23T09:39:00.318Z,17.83
2022-09-23T09:41:31.426Z,16.88
2022-09-23T09:44:00.679Z,16.00
2022-09-23T09:46:32.951Z,15.93
2022-09-23T09:49:03.262Z,17.08
2022-09-23T09:51:30.350Z,14.38
2022-09-23T09:54:17.033Z,16.83
2022-09-23T09:56:45.189Z,12.45
2022-09-23T09:59:16.727Z,13.30
2022-09-23T10:01:44.067Z,13.07
2022-09-23T10:04:28.240Z,12.18
2022-09-23T10:07:21.704Z,12.82
2022-09-23T10:09:50.200Z,13.55
2022-09-23T10:12:18.564Z,13.93
2022-09-23T10:14:46.835Z,14.73
2022-09-23T10:17:33.964Z,11.45
2022-09-23T10:20:03.423Z,13.73
2022-09-23T10:22:34.771Z,12.40
2022-09-23T10:25:03.632Z,12.10
2022-09-23T10:27:33.269Z,11.85
2022-09-23T10:30:01.787Z,12.35
2022-09-23T10:32:31.120Z,13.05
2022-09-23T10:34:59.796Z,12.57
2022-09-23T10:37:35.139Z,14.40
2022-09-23T10:40:30.176Z,12.57
2022-09-23T10:43:36.554Z,12.10
2022-09-23T10:46:23.794Z,13.18
2022-09-23T10:49:17.466Z,11.80
2022-09-23T10:51:44.540Z,10.70
2022-09-23T10:54:18.393Z,12.93
2022-09-23T10:56:51.405Z,13.32
2022-09-23T10:59:37.840Z,9.98
2022-09-23T11:02:07.632Z,10.20
2022-09-23T11:04:34.679Z,9.60
2022-09-23T11:07:14.000Z,11.32
2022-09-23T11:09:51.876Z,9.50
2022-09-23T11:12:25.130Z,8.45
2022-09-23T11:15:04.354Z,9.98
2022-09-23T11:17:50.050Z,7.87
2022-09-23T11:20:23.269Z,8.00
2022-09-23T11:23:01.036Z,9.50
2022-09-23T11:25:47.172Z,7.63
2022-09-23T11:28:17.753Z,9.73
2022-09-23T11:30:44.927Z,9.17
2022-09-23T11:33:32.373Z,9.25
2022-09-23T11:36:08.198Z,11.13
2022-09-23T11:38:46.056Z,10.10
2022-09-23T11:41:17.513Z,8.63
2022-09-23T11:43:47.252Z,9.47
2022-09-23T11:46:14.422Z,8.50
2022-09-23T11:48:48.762Z,9.65
2022-09-23T11:51:18.767Z,8.55
2022-09-23T11:54:03.723Z,10.00
2022-09-23T11:56:46.714Z,11.47
2022-09-23T11:59:15.872Z,7.82
2022-09-23T12:01:48.288Z,7.72
2022-09-23T12:04:21.066Z,8.27
2022-09-23T12:07:11.560Z,8.23
2022-09-23T12:09:59.836Z,7.83
2022-09-23T12:12:41.119Z,8.25
2022-09-23T12:15:23.720Z,9.35
2022-09-23T12:18:11.162Z,7.93
2022-09-23T12:21:33.078Z,8.52
2022-09-23T12:24:22.034Z,9.13
2022-09-23T12:26:52.052Z,7.63
2022-09-23T12:29:19.225Z,7.78
2022-09-23T12:31:46.873Z,8.43
2022-09-23T12:34:22.478Z,7.32
2022-09-23T12:36:49.612Z,6.07
2022-09-23T12:39:27.853Z,6.88
2022-09-23T12:41:58.703Z,8.32
2022-09-23T12:44:41.166Z,7.28
2022-09-23T12:47:27.980Z,9.30
2022-09-23T12:49:56.480Z,7.07
2022-09-23T12:52:25.698Z,7.45
2022-09-23T12:54:56.244Z,11.60
2022-09-23T12:57:52.652Z,7.47
2022-09-23T13:00:29.860Z,8.93
2022-09-23T13:03:19.536Z,7.90
2022-09-23T13:06:12.324Z,10.27
2022-09-23T13:08:41.070Z,7.90
2022-09-23T13:11:15.674Z,8.52
2022-09-23T13:13:44.135Z,7.15
2022-09-23T13:16:11.286Z,9.03
2022-09-23T13:18:50.352Z,8.27
2022-09-23T13:21:19.212Z,6.90
2022-09-23T13:24:04.924Z,7.63
2022-09-23T13:26:32.920Z,7.88
2022-09-23T13:29:00.072Z,6.40
2022-09-23T13:31:27.322Z,8.98
2022-09-23T13:34:00.357Z,8.52
2022-09-23T13:36:27.432Z,10.57
2022-09-23T13:38:54.606Z,8.85
2022-09-23T13:41:25.083Z,10.13
2022-09-23T13:43:58.534Z,8.48
2022-09-23T13:46:27.054Z,7.95
2022-09-23T13:48:54.816Z,12.80
2022-09-23T13:51:33.261Z,7.72
2022-09-23T13:54:01.445Z,10.20
2022-09-23T13:56:30.177Z,9.73
2022-09-23T13:59:21.146Z,12.68
2022-09-23T14:01:48.286Z,10.25
2022-09-23T14:04:25.387Z,10.40
2022-09-23T14:06:53.347Z,10.13
2022-09-23T14:09:24.375Z,10.40
2022-09-23T14:11:52.151Z,12.63
2022-09-23T14:14:19.410Z,12.82
2022-09-23T14:16:49.577Z,12.98
2022-09-23T14:19:21.489Z,11.87
2022-09-23T14:21:49.926Z,10.75
2022-09-23T14:24:21.530Z,13.98
2022-09-23T14:27:00.653Z,15.07
2022-09-23T14:29:30.067Z,12.25
2022-09-23T14:32:00.171Z,11.67
2022-09-23T14:34:39.447Z,12.57
2022-09-23T14:37:51.096Z,13.18
2022-09-23T14:40:29.482Z,14.95
2022-09-23T14:43:02.744Z,15.13
2022-09-23T14:45:37.176Z,10.60
2022-09-23T14:48:14.132Z,15.25
2022-09-23T14:50:50.384Z,13.93
2022-09-23T14:53:23.308Z,13.88
2022-09-23T14:55:57.172Z,14.25
2022-09-23T14:58:28.471Z,11.57
2022-09-23T15:00:57.000Z,10.68
2022-09-23T15:03:24.398Z,12.65
2022-09-23T15:05:57.863Z,12.43
2022-09-23T15:08:27.115Z,14.70
2022-09-23T15:10:54.652Z,16.37
2022-09-23T15:13:21.680Z,13.23
2022-09-23T15:15:48.751Z,13.93
2022-09-23T15:18:33.153Z,15.00
2022-09-23T15:21:13.732Z,9.82
2022-09-23T15:23:49.654Z,9.20
2022-09-23T15:26:20.860Z,10.25
2022-09-23T15:28:48.508Z,10.32
2022-09-23T15:31:16.727Z,12.57
2022-09-23T15:33:50.888Z,9.88
2022-09-23T15:36:22.156Z,10.10
2022-09-23T15:38:49.629Z,9.45
2022-09-23T15:41:20.103Z,10.02
2022-09-23T15:44:08.013Z,9.70
2022-09-23T15:46:47.016Z,11.25
2022-09-23T15:49:23.485Z,10.33
2022-09-23T15:51:52.095Z,12.23
2022-09-23T15:54:19.683Z,13.82
2022-09-23T15:56:47.798Z,12.48
2022-09-23T15:59:14.888Z,12.25
2022-09-23T16:01:42.979Z,12.83
2022-09-23T16:04:10.861Z,13.05
2022-09-23T16:06:37.933Z,11.90
2022-09-23T16:09:05.076Z,12.45
2022-09-23T16:11:32.718Z,11.00
2022-09-23T16:14:00.630Z,13.60
2022-09-23T16:16:28.173Z,16.15
2022-09-23T16:18:55.488Z,15.27
2022-09-23T16:21:24.648Z,15.07
2022-09-23T16:23:53.241Z,16.48
2022-09-23T16:26:24.135Z,16.13
2022-09-23T16:28:52.223Z,14.02
2022-09-23T16:31:19.593Z,13.63
2022-09-23T16:33:47.172Z,15.35
2022-09-23T16:36:25.801Z,15.80
2022-09-23T16:38:54.953Z,17.03
2022-09-23T16:41:23.415Z,15.98
2022-09-23T16:43:53.787Z,19.65
2022-09-23T16:46:22.520Z,16.52
2022-09-23T16:48:52.665Z,15.00
2022-09-23T16:51:21.252Z,15.57
2022-09-23T16:53:51.784Z,18.38
2022-09-23T16:56:24.224Z,19.17
2022-09-23T16:58:54.957Z,16.92
2022-09-23T17:01:42.043Z,19.55
2022-09-23T17:04:10.484Z,20.80
2022-09-23T17:06:42.737Z,25.17
2022-09-23T17:09:10.018Z,23.88
2022-09-23T17:11:38.071Z,19.60
2022-09-23T17:14:05.572Z,22.17
2022-09-23T17:16:33.734Z,19.57
2022-09-23T17:19:06.494Z,21.33
2022-09-23T17:21:33.934Z,19.05
2022-09-23T17:24:01.837Z,23.00
2022-09-23T17:26:29.383Z,20.95
2022-09-23T17:28:57.448Z,21.20
2022-09-23T17:31:25.521Z,22.50
2022-09-23T17:33:53.215Z,22.33
2022-09-23T17:36:20.943Z,21.33
2022-09-23T17:38:48.639Z,20.75
2022-09-23T17:41:17.140Z,21.70
2022-09-23T17:43:45.287Z,22.35
2022-09-23T17:46:17.918Z,24.20
2022-09-23T17:48:45.400Z,20.05
2022-09-23T17:51:17.312Z,21.00
2022-09-23T17:53:45.285Z,22.23
2022-09-23T17:56:15.632Z,26.10
2022-09-23T17:58:43.478Z,23.85
2022-09-23T18:01:12.032Z,22.73
2022-09-23T18:03:42.187Z,24.65
2022-09-23T18:06:29.755Z,24.42
2022-09-23T18:08:57.223Z,26.33
2022-09-23T18:11:25.534Z,23.55
2022-09-23T18:13:53.970Z,23.20
2022-09-23T18:16:22.765Z,24.48
2022-09-23T18:18:53.562Z,21.80
2022-09-23T18:21:21.204Z,23.13
2022-09-23T18:23:48.649Z,26.38
2022-09-23T18:26:16.336Z,25.65
2022-09-23T18:28:43.556Z,25.52
2022-09-23T18:31:11.130Z,24.77
2022-09-23T18:33:38.807Z,26.13
2022-09-23T18:36:06.463Z,26.60
2022-09-23T18:38:33.555Z,25.75
2022-09-23T18:41:01.053Z,23.63
2022-09-23T18:43:37.224Z,24.27
2022-09-23T18:46:08.884Z,25.30
2022-09-23T18:48:54.854Z,26.02
2022-09-23T18:51:25.428Z,24.50
2022-09-23T18:53:57.518Z,25.15
2022-09-23T18:56:29.600Z,25.85
2022-09-23T18:58:56.901Z,26.67
2022-09-23T19:01:24.894Z,27.98
2022-09-23T19:03:59.112Z,28.90
2022-09-23T19:06:26.428Z,24.63
2022-09-23T19:08:54.307Z,25.83
2022-09-23T19:11:21.790Z,27.60
2022-09-23T19:13:54.071Z,26.55
2022-09-23T19:16:22.453Z,26.55
2022-09-23T19:18:50.041Z,25.15
2022-09-23T19:21:18.399Z,26.85
2022-09-23T19:23:49.021Z,25.37
2022-09-23T19:26:17.396Z,23.67
2022-09-23T19:28:48.523Z,24.38
2022-09-23T19:31:17.089Z,25.77
2022-09-23T19:33:49.821Z,26.05
2022-09-23T19:36:17.421Z,26.00
2022-09-23T19:38:44.501Z,28.02
2022-09-23T19:41:11.591Z,26.63
2022-09-23T19:43:38.651Z,28.27
2022-09-23T19:46:06.845Z,31.33
2022-09-23T19:48:34.175Z,30.03
2022-09-23T19:51:02.531Z,28.17
2022-09-23T19:53:29.622Z,26.23
2022-09-23T19:55:57.052Z,28.60
2022-09-23T19:58:25.531Z,28.98
2022-09-23T20:00:52.703Z,27.50
2022-09-23T20:03:19.856Z,30.67
2022-09-23T20:05:54.869Z,29.25
2022-09-23T20:08:22.423Z,26.42
2022-09-23T20:10:49.784Z,30.13
2022-09-23T20:13:20.186Z,25.63
2022-09-23T20:15:48.192Z,29.90
2022-09-23T20:18:15.487Z,28.13
2022-09-23T20:20:42.664Z,28.33
2022-09-23T20:23:09.708Z,29.08
2022-09-23T20:25:55.643Z,28.17
2022-09-23T20:28:22.775Z,30.02
2022-09-23T20:30:50.898Z,29.02
2022-09-23T20:33:17.934Z,28.30
2022-09-23T20:35:51.116Z,31.05
2022-09-23T20:38:18.171Z,29.33
2022-09-23T20:40:45.338Z,28.38
2022-09-23T20:43:15.978Z,28.45
2022-09-23T20:45:49.929Z,28.60
2022-09-23T20:48:16.967Z,30.55
2022-09-23T20:50:44.975Z,29.37
2022-09-23T20:53:12.055Z,31.92
2022-09-23T20:55:39.203Z,28.67
2022-09-23T20:58:06.285Z,31.48
2022-09-23T21:00:33.691Z,33.30
2022-09-23T21:03:02.547Z,30.70
2022-09-23T21:05:30.114Z,33.30
2022-09-23T21:08:02.134Z,32.72
2022-09-23T21:10:30.087Z,32.63
2022-09-23T21:12:57.163Z,30.85
2022-09-23T21:15:24.200Z,32.17
2022-09-23T21:17:51.255Z,33.10
2022-09-23T21:20:18.416Z,33.88
2022-09-23T21:22:45.462Z,32.35
2022-09-23T21:25:29.002Z,34.05
2022-09-23T21:27:57.551Z,31.13
2022-09-23T21:30:24.631Z,32.42
2022-09-23T21:32:51.667Z,33.22
2022-09-23T21:35:21.557Z,31.58
2022-09-23T21:37:51.660Z,28.40
2022-09-23T21:40:37.610Z,30.73
2022-09-23T21:43:04.710Z,28.40
2022-09-23T21:45:32.023Z,31.63
2022-09-23T21:47:59.079Z,31.77
2022-09-23T21:50:29.781Z,32.75
2022-09-23T21:52:58.209Z,29.07
2022-09-23T21:55:25.442Z,31.15
2022-09-23T21:57:52.610Z,29.92
2022-09-23T22:00:19.685Z,28.35
2022-09-23T22:02:46.811Z,30.30
2022-09-23T22:05:13.912Z,33.70
2022-09-23T22:07:40.950Z,35.08
2022-09-23T22:10:08.157Z,31.80
2022-09-23T22:12:35.307Z,34.05
2022-09-23T22:15:02.382Z,31.00
2022-09-23T22:17:30.771Z,31.43
2022-09-23T22:19:58.409Z,35.10
2022-09-23T22:22:25.541Z,34.45
2022-09-23T22:24:52.586Z,33.78
2022-09-23T22:27:20.451Z,34.65
2022-09-23T22:30:06.203Z,32.03
2022-09-23T22:32:43.286Z,34.03
2022-09-23T22:35:12.204Z,34.90
2022-09-23T22:37:39.266Z,34.05
2022-09-23T22:40:08.045Z,35.95
2022-09-23T22:42:36.423Z,34.43
2022-09-23T22:45:05.654Z,35.08
2022-09-23T22:47:39.758Z,34.75
2022-09-23T22:50:07.905Z,37.25
2022-09-23T22:52:35.271Z,37.33
2022-09-23T22:55:03.579Z,34.97
2022-09-23T22:57:31.239Z,38.58
2022-09-23T22:59:58.315Z,36.95
2022-09-23T23:02:25.387Z,37.78
2022-09-23T23:04:52.701Z,39.58
2022-09-23T23:07:21.549Z,39.93
2022-09-23T23:09:50.166Z,37.97
2022-09-23T23:12:19.895Z,38.85
2022-09-23T23:14:48.349Z,41.88
2022-09-23T23:17:15.425Z,38.20
2022-09-23T23:19:42.475Z,34.43
2022-09-23T23:22:09.571Z,37.00
2022-09-23T23:24:36.638Z,37.58
2022-09-23T23:27:03.706Z,35.10
2022-09-23T23:29:30.841Z,36.22
2022-09-23T23:31:57.931Z,34.97
2022-09-23T23:34:25.291Z,36.28
2022-09-23T23:36:56.786Z,34.88
2022-09-23T23:39:24.779Z,31.15
2022-09-23T23:41:55.737Z,33.92
2022-09-23T23:44:23.724Z,32.17
2022-09-23T23:46:51.176Z,30.35
2022-09-23T23:49:18.308Z,29.88
2022-09-23T23:51:45.407Z,33.75
2022-09-23T23:54:12.863Z,30.13
2022-09-23T23:56:39.931Z,27.73
2022-09-23T23:59:07.203Z,29.90
